Elton, Pennsylvania
Current Conditions -  °F | °C
As of 8:54 AM on Thursday 23 Oct 2014 (Local Time) from KJST Reporting Station
Overcast Overcast  
Wind Chill: 37°   Ceiling: 1100
Heat Index: 42°   Visibility: 10mi
Dew Point: 37°   Wind: 9mph
Humidity: 82%   Direction: 350°N
Pressure: 30.06"   Gusts: NA
Location:  40.28°N, 78.8°W
Report Text: KJST 231254Z AUTO 35008KT 10SM OVC011 06/03 A3006 RMK AO2 SLP191 T00560028
Loading
Personal Weather Stations






























Interactive Weather Map
Tropical Storm Tracking
New forecast layout! Learn more

10-Day Weather Forecast

Advertisements
Track Severe Weather on mobile